Necker Belle — MKYK7 — position and weather

sailwx.info

Track history (hours):
 
Tides and Currents Weather Stations Pressure Air Temp Water Temp Dewpoint Dewpoint Depression Visibility Wind Speed Wind Dir Waves Ship Positions

Necker Belle

Last reported at 2016-Jul-01 18:33 UTC. Time now 2016-Jul-01 19:03 UTC.
Position N 18°25' W 064°29'.

Length 32 m.

Type: Sailing vessel. MMSI: 232728000.

Date/timePositionNaut miles runAvg speedWind from/ knotsBaromVisibWave heightAir tempDewpointWater temp
2016-Jul-01 18:33N 18°25' W 064°29'4 0.4
2016-Jul-01 08:25N 18°23' W 064°32'0 0.0
2016-Jul-01 07:19N 18°23' W 064°32'0 0.0
2016-Jul-01 06:28N 18°23' W 064°32'0 0.0
2016-Jul-01 04:28N 18°23' W 064°32'0 0.0
2016-Jul-01 03:28N 18°23' W 064°32'0 0.0
2016-Jul-01 02:16N 18°23' W 064°32'0 0.0
2016-Jul-01 00:13N 18°23' W 064°32'0 0.0
2016-Jun-30 23:28N 18°23' W 064°32'1 0.2
2016-Jun-30 20:24N 18°23' W 064°32'3 3.0
2016-Jun-30 19:32N 18°23' W 064°35'8 0.3
2016-Jun-29 14:33N 18°23' W 064°43'4 0.4
2016-Jun-29 03:23N 18°27' W 064°43'0 0.0
2016-Jun-29 02:11N 18°27' W 064°43'0 0.0
2016-Jun-28 22:20N 18°27' W 064°43'1 0.2
2016-Jun-28 16:29N 18°26' W 064°43'2 2.5
2016-Jun-28 15:30N 18°23' W 064°42'0 0.0
2016-Jun-28 14:30N 18°23' W 064°42'3 2.8
2016-Jun-28 13:30N 18°22' W 064°45'0 0.0
2016-Jun-28 12:30N 18°22' W 064°45'0 0.0
2016-Jun-28 11:33N 18°22' W 064°45'0 0.0
2016-Jun-28 10:27N 18°22' W 064°45'0 0.0
2016-Jun-28 09:24N 18°22' W 064°45'0 0.0
2016-Jun-28 08:30N 18°22' W 064°45'0 0.0
2016-Jun-28 07:33N 18°22' W 064°45'0 0.0
2016-Jun-28 06:30N 18°22' W 064°45'0 0.0
2016-Jun-28 04:24N 18°22' W 064°45'0 0.0
2016-Jun-28 03:24N 18°22' W 064°45'0 0.0
2016-Jun-28 02:33N 18°22' W 064°45'0 0.0
2016-Jun-28 01:30N 18°22' W 064°45'0 0.0
2016-Jun-28 00:24N 18°22' W 064°45'0 0.0
2016-Jun-27 23:30N 18°22' W 064°45'0 0.2
2016-Jun-27 22:32N 18°22' W 064°45'  
2016-Jun-22 18:10N 18°20' W 064°48'3 4.9
2016-Jun-22 17:33N 18°22' W 064°45'  
Track history (hours):
 
Tides and Currents Weather Stations Pressure Air Temp Water Temp Dewpoint Dewpoint Depression Visibility Wind Speed Wind Dir Waves Ship Positions

Necker Belle

Last reported at 2016-Jul-01 18:33 UTC. Time now 2016-Jul-01 19:03 UTC.
Position N 18°25' W 064°29'.

Length 32 m.

Type: Sailing vessel. MMSI: 232728000.

Date/timePositionNaut miles runAvg speedWind from/ knotsBaromVisibWave heightAir tempDewpointWater temp
2016-Jul-01 18:33N 18°25' W 064°29'4 0.4
2016-Jul-01 08:25N 18°23' W 064°32'0 0.0
2016-Jul-01 07:19N 18°23' W 064°32'0 0.0
2016-Jul-01 06:28N 18°23' W 064°32'0 0.0
2016-Jul-01 04:28N 18°23' W 064°32'0 0.0
2016-Jul-01 03:28N 18°23' W 064°32'0 0.0
2016-Jul-01 02:16N 18°23' W 064°32'0 0.0
2016-Jul-01 00:13N 18°23' W 064°32'0 0.0
2016-Jun-30 23:28N 18°23' W 064°32'1 0.2
2016-Jun-30 20:24N 18°23' W 064°32'3 3.0
2016-Jun-30 19:32N 18°23' W 064°35'8 0.3
2016-Jun-29 14:33N 18°23' W 064°43'4 0.4
2016-Jun-29 03:23N 18°27' W 064°43'0 0.0
2016-Jun-29 02:11N 18°27' W 064°43'0 0.0
2016-Jun-28 22:20N 18°27' W 064°43'1 0.2
2016-Jun-28 16:29N 18°26' W 064°43'2 2.5
2016-Jun-28 15:30N 18°23' W 064°42'0 0.0
2016-Jun-28 14:30N 18°23' W 064°42'3 2.8
2016-Jun-28 13:30N 18°22' W 064°45'0 0.0
2016-Jun-28 12:30N 18°22' W 064°45'0 0.0
2016-Jun-28 11:33N 18°22' W 064°45'0 0.0
2016-Jun-28 10:27N 18°22' W 064°45'0 0.0
2016-Jun-28 09:24N 18°22' W 064°45'0 0.0
2016-Jun-28 08:30N 18°22' W 064°45'0 0.0
2016-Jun-28 07:33N 18°22' W 064°45'0 0.0
2016-Jun-28 06:30N 18°22' W 064°45'0 0.0
2016-Jun-28 04:24N 18°22' W 064°45'0 0.0
2016-Jun-28 03:24N 18°22' W 064°45'0 0.0
2016-Jun-28 02:33N 18°22' W 064°45'0 0.0
2016-Jun-28 01:30N 18°22' W 064°45'0 0.0
2016-Jun-28 00:24N 18°22' W 064°45'0 0.0
2016-Jun-27 23:30N 18°22' W 064°45'0 0.2
2016-Jun-27 22:32N 18°22' W 064°45'  
2016-Jun-22 18:10N 18°20' W 064°48'3 4.9
2016-Jun-22 17:33N 18°22' W 064°45'  

Dump ship's entire track history